Time;durP1;ratioP1;P1;durP2;ratioP2;P2;SDS_P1;SDS_P2;PMS_P1;PMS_P2;Temp;Humidity;BMP_temperature;BMP_pressure;BME280_temperature;BME280_humidity;BME280_pressure;Samples;Min_cycle;Max_cycle;Signal;HPM_P1;HPM_P2
2022/04/26 07:58:36;;;;;;;11.70;8.55;;;;;;;10.16;73.69;101636.94;5327337;27;20868;-72
2022/04/26 08:01:07;;;;;;;18.15;8.85;;;;;;;10.34;74.99;101637.63;5322586;28;20063;-76
2022/04/26 08:03:38;;;;;;;11.75;8.23;;;;;;;10.28;74.03;101636.78;5317476;28;20051;-74
2022/04/26 08:06:10;;;;;;;15.77;9.63;;;;;;;10.30;73.76;101639.28;5308892;28;20113;-74
2022/04/26 08:08:41;;;;;;;8.90;7.97;;;;;;;10.55;74.61;101650.50;5318971;28;20028;-81
2022/04/26 08:11:13;;;;;;;14.00;8.55;;;;;;;10.54;72.34;101651.63;5309783;28;20034;-78
2022/04/26 08:13:46;;;;;;;12.38;8.68;;;;;;;10.44;70.99;101655.16;5296981;28;20058;-74
2022/04/26 08:16:18;;;;;;;8.55;7.45;;;;;;;10.79;73.56;101664.78;5312350;28;20536;-74
2022/04/26 08:18:52;;;;;;;9.43;7.97;;;;;;;10.65;71.10;101667.19;5305083;28;20111;-72
2022/04/26 08:21:23;;;;;;;14.80;8.82;;;;;;;10.63;70.58;101665.78;5314917;28;20053;-77
2022/04/26 08:29:34;;;;;;;14.27;8.13;;;;;;;10.68;69.39;101668.59;5305430;28;20036;-78
2022/04/26 08:32:06;;;;;;;12.73;8.05;;;;;;;10.85;71.31;101676.72;5300026;28;20016;-78
2022/04/26 08:34:37;;;;;;;10.07;7.43;;;;;;;10.75;70.67;101674.72;5300561;28;20048;-79
2022/04/26 08:37:09;;;;;;;13.50;8.93;;;;;;;10.92;69.85;101673.72;5307267;28;20112;-78
2022/04/26 08:39:40;;;;;;;10.05;7.95;;;;;;;11.17;70.12;101676.56;5301825;28;20483;-78
2022/04/26 08:42:12;;;;;;;10.15;8.13;;;;;;;11.17;69.45;101679.34;5318111;28;20175;-78
2022/04/26 08:44:44;;;;;;;7.90;7.15;;;;;;;11.49;70.04;101690.22;5308222;28;20019;-84
2022/04/26 08:52:58;;;;;;;10.10;7.70;;;;;;;11.19;67.55;101696.53;5321677;28;20044;-81
2022/04/26 08:55:31;;;;;;;9.15;6.57;;;;;;;11.25;68.28;101692.69;5305325;28;20024;-81
2022/04/26 08:58:02;;;;;;;23.38;8.32;;;;;;;11.22;67.80;101692.38;5316469;28;20055;-83
2022/04/26 09:00:34;;;;;;;24.70;9.07;;;;;;;11.50;68.48;101693.81;5315599;28;20031;-85
2022/04/26 09:03:11;;;;;;;30.33;10.35;;;;;;;11.28;66.37;101694.91;5322191;28;20040;-84
2022/04/26 09:06:07;;;;;;;14.77;7.43;;;;;;;11.40;67.46;101691.88;5321203;28;20027;-81
2022/04/26 09:08:40;;;;;;;15.73;8.70;;;;;;;11.20;66.12;101697.41;5309464;28;20103;-82
2022/04/26 09:11:27;;;;;;;12.90;6.65;;;;;;;11.34;67.32;101697.69;5307166;28;20107;-82
2022/04/26 09:14:00;;;;;;;9.90;7.20;;;;;;;11.30;66.66;101697.41;5292244;28;20482;-83
2022/04/26 09:16:31;;;;;;;10.38;6.40;;;;;;;11.54;66.31;101692.19;5294410;28;20028;-82
2022/04/26 09:19:08;;;;;;;9.30;6.32;;;;;;;11.66;66.33;101694.72;5293727;28;20035;-80
2022/04/26 09:21:55;;;;;;;10.00;6.15;;;;;;;11.80;64.10;101678.31;5283263;28;20016;-78
2022/04/26 09:24:26;;;;;;;11.88;7.40;;;;;;;11.75;63.97;101701.38;5287384;28;20084;-79
2022/04/26 09:26:57;;;;;;;16.83;10.50;;;;;;;11.76;63.58;101703.06;5306138;28;20139;-80
2022/04/26 09:29:29;;;;;;;11.52;5.63;;;;;;;11.82;63.78;101713.03;5295104;28;20028;-81
2022/04/26 09:32:03;;;;;;;11.88;6.97;;;;;;;11.75;62.19;101707.75;5306673;28;20370;-80
2022/04/26 09:34:38;;;;;;;10.82;6.13;;;;;;;11.87;61.78;101710.31;5301606;28;20036;-79
2022/04/26 09:37:10;;;;;;;9.00;5.97;;;;;;;11.76;61.57;101711.38;5292037;28;20481;-81
2022/04/26 09:40:02;;;;;;;47.72;36.60;;;;;;;11.92;62.34;101706.69;5306448;28;20310;-78
2022/04/26 09:42:35;;;;;;;9.48;6.63;;;;;;;12.00;61.15;101710.88;5305397;28;20379;-79
2022/04/26 09:45:15;;;;;;;8.90;5.75;;;;;;;11.93;59.69;101723.06;5302531;28;20017;-80
2022/04/26 09:47:53;;;;;;;7.32;4.65;;;;;;;11.91;58.49;101724.47;5280261;28;20584;-82
2022/04/26 09:50:27;;;;;;;10.18;6.57;;;;;;;12.20;59.46;101723.94;5296130;28;20450;-81
2022/04/26 09:52:58;;;;;;;7.72;5.22;;;;;;;12.24;58.20;101725.84;5309085;28;20000;-81
2022/04/26 09:55:30;;;;;;;8.48;4.88;;;;;;;12.27;56.68;101732.81;5295096;28;20036;-81
2022/04/26 09:58:05;;;;;;;7.63;4.82;;;;;;;12.25;56.32;101735.06;5302103;28;20056;-80
2022/04/26 10:00:39;;;;;;;7.13;5.07;;;;;;;12.17;55.30;101739.22;5303215;28;20020;-80
2022/04/26 10:03:16;;;;;;;8.45;5.05;;;;;;;12.48;58.10;101737.25;5305944;28;20012;-90
2022/04/26 10:05:50;;;;;;;8.38;4.80;;;;;;;12.35;56.46;101729.47;5308310;28;20040;-92
2022/04/26 10:08:25;;;;;;;8.35;5.72;;;;;;;12.61;59.20;101739.44;5305990;28;20528;-89
2022/04/26 10:11:00;;;;;;;11.43;5.60;;;;;;;12.75;58.31;101736.06;5289546;28;20382;-78
2022/04/26 10:13:36;;;;;;;10.82;5.72;;;;;;;12.69;57.98;101749.16;5297580;28;20034;-81
2022/04/26 10:16:16;;;;;;;7.63;5.03;;;;;;;12.80;60.55;101747.16;5294626;28;20039;-82
2022/04/26 10:18:49;;;;;;;8.43;6.10;;;;;;;12.74;58.31;101748.31;5290404;28;20055;-81
2022/04/26 10:21:23;;;;;;;8.40;5.50;;;;;;;12.72;58.15;101756.94;5289402;28;20106;-83
2022/04/26 10:23:55;;;;;;;7.10;5.30;;;;;;;12.64;57.13;101762.25;5301641;28;20029;-82
2022/04/26 10:26:27;;;;;;;6.82;4.68;;;;;;;12.49;57.14;101757.53;5304771;28;20036;-82
2022/04/26 10:29:02;;;;;;;8.88;5.13;;;;;;;12.55;57.94;101761.97;5288437;28;20044;-82
2022/04/26 10:31:59;;;;;;;5.88;4.80;;;;;;;12.84;57.80;101765.00;5296826;28;20499;-80
2022/04/26 10:34:33;;;;;;;7.72;5.10;;;;;;;12.87;56.21;101761.63;5303866;28;20097;-75
2022/04/26 10:37:09;;;;;;;5.93;4.93;;;;;;;12.83;54.92;101758.59;5293521;28;20376;-76
2022/04/26 10:39:42;;;;;;;11.63;5.40;;;;;;;13.03;54.67;101763.25;5296677;28;20879;-76
2022/04/26 10:42:17;;;;;;;7.00;4.70;;;;;;;12.91;53.76;101761.88;5303008;28;20032;-80
2022/04/26 10:44:52;;;;;;;8.55;6.70;;;;;;;12.96;54.26;101768.31;5288234;28;20049;-78
2022/04/26 10:47:25;;;;;;;53.85;42.97;;;;;;;13.00;54.55;101777.75;5293333;28;20063;-77
2022/04/26 10:49:58;;;;;;;14.82;10.25;;;;;;;12.86;53.27;101768.34;5305050;28;20028;-79
2022/04/26 10:52:34;;;;;;;6.85;4.47;;;;;;;12.92;52.79;101775.53;5278499;28;20062;-80
2022/04/26 10:55:10;;;;;;;37.95;7.13;;;;;;;12.81;51.62;101776.69;5280693;28;20432;-81
2022/04/26 10:57:46;;;;;;;8.57;5.50;;;;;;;12.79;51.95;101781.69;5304780;28;20040;-81
2022/04/26 11:00:25;;;;;;;7.18;6.47;;;;;;;13.02;52.02;101774.69;5301395;28;20439;-79
2022/04/26 11:03:05;;;;;;;14.90;12.15;;;;;;;12.99;51.99;101776.06;5270081;28;20059;-80
2022/04/26 11:05:37;;;;;;;6.53;4.40;;;;;;;12.97;50.88;101764.38;5297628;28;20028;-78
2022/04/26 11:08:09;;;;;;;8.02;5.10;;;;;;;13.16;50.04;101778.50;5295376;28;20035;-80
2022/04/26 11:13:33;;;;;;;7.47;4.82;;;;;;;13.42;49.94;101770.94;5283505;28;20036;-80
2022/04/26 11:16:08;;;;;;;6.57;4.45;;;;;;;13.38;50.18;101772.59;5285959;28;20507;-79
2022/04/26 11:18:42;;;;;;;7.13;4.50;;;;;;;13.41;49.87;101768.41;5290425;28;20029;-80
2022/04/26 11:21:14;;;;;;;7.93;4.82;;;;;;;13.48;50.67;101763.38;5284125;28;20028;-80
2022/04/26 11:29:42;;;;;;;7.38;5.22;;;;;;;13.81;51.12;101767.34;5290699;28;20032;-80
2022/04/26 11:32:32;;;;;;;9.88;5.70;;;;;;;13.88;50.83;101762.28;5304065;28;20028;-81
2022/04/26 11:35:04;;;;;;;5.63;4.65;;;;;;;13.96;49.44;101765.56;5299885;28;20047;-80
2022/04/26 11:37:46;;;;;;;6.10;4.90;;;;;;;14.00;48.87;101775.00;5276507;28;20484;-81
2022/04/26 11:40:26;;;;;;;6.32;5.30;;;;;;;14.11;49.35;101766.28;5300836;28;20024;-81
2022/04/26 11:43:05;;;;;;;5.78;5.10;;;;;;;14.06;48.48;101774.69;5298208;28;20454;-83
2022/04/26 11:45:37;;;;;;;7.93;4.72;;;;;;;14.10;47.32;101770.19;5286504;28;20025;-82
2022/04/26 11:48:14;;;;;;;9.07;4.95;;;;;;;14.25;49.60;101772.03;5299799;28;20090;-82
2022/04/26 11:50:48;;;;;;;8.88;5.57;;;;;;;14.33;46.94;101790.91;5305068;28;20085;-82
2022/04/26 11:53:21;;;;;;;5.32;4.75;;;;;;;14.15;46.35;101783.25;5299879;28;20078;-83
2022/04/26 11:56:06;;;;;;;6.25;4.95;;;;;;;14.28;46.53;101781.78;5291617;28;20058;-80
2022/04/26 11:58:38;;;;;;;8.00;4.97;;;;;;;14.54;46.69;101790.75;5300153;28;20047;-81
2022/04/26 12:01:17;;;;;;;9.98;5.65;;;;;;;14.50;45.18;101779.34;5292578;28;20438;-81
2022/04/26 12:03:51;;;;;;;5.80;4.00;;;;;;;14.54;44.78;101793.56;5270753;28;20036;-80
2022/04/26 12:06:32;;;;;;;6.80;5.35;;;;;;;14.61;46.25;101785.69;5290268;28;20131;-82
2022/04/26 12:09:07;;;;;;;6.97;5.28;;;;;;;14.78;45.15;101785.25;5292762;28;20028;-81
2022/04/26 12:11:41;;;;;;;8.38;5.70;;;;;;;14.93;45.40;101785.06;5283987;28;20519;-82
2022/04/26 12:14:16;;;;;;;6.90;4.95;;;;;;;14.76;44.36;101788.31;5304537;28;20360;-82
2022/04/26 12:16:54;;;;;;;7.65;4.95;;;;;;;14.83;44.26;101792.72;5297757;28;20069;-81
2022/04/26 12:19:34;;;;;;;15.60;7.53;;;;;;;15.04;43.75;101794.16;5282714;28;20028;-82
2022/04/26 12:22:10;;;;;;;6.78;4.97;;;;;;;14.84;43.76;101788.81;5288648;28;20020;-82
2022/04/26 12:24:49;;;;;;;6.50;4.90;;;;;;;14.69;43.20;101793.41;5294527;28;20077;-83
2022/04/26 12:27:26;;;;;;;7.80;4.60;;;;;;;14.69;43.29;101782.25;5286715;28;20103;-80
2022/04/26 12:29:58;;;;;;;5.38;4.45;;;;;;;14.77;43.12;101786.34;5301469;28;20055;-79
2022/04/26 12:32:31;;;;;;;5.97;4.53;;;;;;;14.93;42.07;101789.81;5298814;28;20048;-82
2022/04/26 12:35:09;;;;;;;4.90;4.32;;;;;;;14.89;42.21;101786.78;5294868;28;20020;-81
2022/04/26 12:37:40;;;;;;;5.20;4.07;;;;;;;14.93;42.05;101785.06;5298077;28;20157;-79
2022/04/26 12:40:14;;;;;;;5.88;4.35;;;;;;;15.20;43.64;101781.66;5302805;28;20123;-80
2022/04/26 12:42:46;;;;;;;7.82;5.03;;;;;;;15.25;42.39;101796.72;5303594;28;20036;-81
2022/04/26 12:45:21;;;;;;;5.85;4.95;;;;;;;14.92;42.14;101790.94;5290309;28;20487;-79
2022/04/26 12:51:24;;;;;;;7.25;4.97;;;;;;;14.83;43.42;101789.91;5297746;28;20395;-83
2022/04/26 12:54:07;;;;;;;7.72;4.50;;;;;;;14.88;43.56;101796.31;5294069;28;20146;-84
2022/04/26 12:56:40;;;;;;;5.07;4.25;;;;;;;14.86;43.11;101786.56;5298750;28;20036;-82
2022/04/26 12:59:16;;;;;;;7.38;4.88;;;;;;;14.78;43.40;101788.88;5312172;28;20089;-75
2022/04/26 13:01:47;;;;;;;6.72;4.68;;;;;;;15.04;44.32;101798.94;5319615;28;20016;-79
2022/04/26 13:04:19;;;;;;;5.50;4.47;;;;;;;15.33;45.31;101801.66;5315911;28;20054;-76
2022/04/26 13:06:51;;;;;;;6.88;4.50;;;;;;;15.48;44.26;101786.63;5320697;28;20506;-74
2022/04/26 13:09:22;;;;;;;6.97;5.10;;;;;;;15.75;44.07;101781.25;5302844;28;20078;-75
2022/04/26 13:11:54;;;;;;;6.55;5.05;;;;;;;15.75;43.74;101791.63;5298815;28;20020;-76
2022/04/26 13:14:31;;;;;;;6.75;5.88;;;;;;;15.63;43.76;101790.06;5302663;28;20056;-76
2022/04/26 13:17:04;;;;;;;25.38;20.25;;;;;;;15.40;43.60;101790.94;5288793;28;20058;-76
2022/04/26 13:19:36;;;;;;;11.88;9.20;;;;;;;15.43;43.12;101785.56;5298245;28;20032;-75
2022/04/26 13:22:07;;;;;;;8.57;6.28;;;;;;;15.85;43.35;101785.88;5289813;28;20024;-75
2022/04/26 13:24:49;;;;;;;26.23;21.63;;;;;;;16.07;43.41;101793.63;5285621;28;20032;-76
2022/04/26 13:27:27;;;;;;;8.98;4.90;;;;;;;15.70;44.27;101781.34;5281552;28;20044;-76
2022/04/26 13:29:59;;;;;;;6.22;4.60;;;;;;;15.63;44.55;101784.47;5294368;28;20031;-76
2022/04/26 13:32:37;;;;;;;8.32;5.40;;;;;;;15.70;43.81;101791.66;5304861;28;20031;-76
2022/04/26 13:35:09;;;;;;;9.93;4.38;;;;;;;15.81;45.01;101788.44;5301404;28;20476;-74
2022/04/26 13:37:40;;;;;;;5.72;4.28;;;;;;;16.05;44.40;101779.97;5304513;28;20046;-77
2022/04/26 13:40:12;;;;;;;11.43;5.70;;;;;;;15.83;43.91;101788.97;5306018;28;20027;-75
2022/04/26 13:42:43;;;;;;;8.73;5.10;;;;;;;15.45;43.86;101788.06;5306348;28;20095;-75
2022/04/26 13:45:14;;;;;;;7.80;4.68;;;;;;;15.37;45.00;101791.53;5294492;28;20446;-73
2022/04/26 13:47:46;;;;;;;5.40;4.82;;;;;;;15.42;46.42;101794.28;5291952;28;20499;-74
2022/04/26 13:50:17;;;;;;;9.73;4.40;;;;;;;15.32;45.37;101797.19;5301935;28;20032;-75
2022/04/26 13:52:48;;;;;;;6.47;5.03;;;;;;;15.42;44.69;101799.88;5282659;28;20035;-75
2022/04/26 13:55:26;;;;;;;6.20;5.50;;;;;;;15.36;45.99;101795.44;5300291;28;20066;-75
2022/04/26 13:57:57;;;;;;;5.13;4.18;;;;;;;15.39;44.85;101792.91;5293802;28;20040;-74
2022/04/26 14:00:30;;;;;;;6.18;4.63;;;;;;;15.31;44.47;101809.47;5300669;28;20403;-73
2022/04/26 14:03:01;;;;;;;5.85;4.47;;;;;;;15.19;45.25;101801.53;5287926;28;20028;-76
2022/04/26 14:05:34;;;;;;;5.70;4.80;;;;;;;15.18;46.56;101800.69;5296459;28;20356;-74
2022/04/26 14:08:06;;;;;;;6.38;5.15;;;;;;;15.12;44.19;101801.88;5281811;28;20385;-75
2022/04/26 14:10:37;;;;;;;6.85;4.43;;;;;;;15.27;45.20;101802.84;5293841;28;20077;-74
2022/04/26 14:13:09;;;;;;;5.57;4.47;;;;;;;15.18;44.97;101797.06;5309040;28;20036;-74
2022/04/26 14:24:10;;;;;;;5.97;4.00;;;;;;;15.05;43.04;101800.59;5297195;28;20119;-76
2022/04/26 14:26:42;;;;;;;6.00;4.43;;;;;;;15.06;43.16;101808.69;5281527;28;20040;-74
2022/04/26 14:29:14;;;;;;;5.60;4.68;;;;;;;15.05;43.95;101804.19;5307280;28;20044;-75
2022/04/26 14:31:45;;;;;;;6.70;4.43;;;;;;;14.95;43.65;101804.31;5308613;28;20429;-74
2022/04/26 14:34:17;;;;;;;15.98;14.38;;;;;;;14.87;44.32;101802.19;5305763;28;20109;-73
2022/04/26 14:36:49;;;;;;;9.43;6.65;;;;;;;14.93;43.00;101806.56;5273019;28;20028;-74
2022/04/26 14:39:20;;;;;;;4.18;3.10;;;;;;;14.97;44.05;101804.84;5305197;28;20032;-73
2022/04/26 14:41:54;;;;;;;9.43;8.40;;;;;;;14.93;42.85;101809.34;5305885;28;20109;-73
2022/04/26 14:44:26;;;;;;;5.32;3.78;;;;;;;14.67;42.76;101814.38;5297892;28;20455;-74
2022/04/26 14:47:04;;;;;;;4.57;3.88;;;;;;;14.66;43.34;101816.34;5306539;28;20065;-75
2022/04/26 14:49:35;;;;;;;7.38;4.28;;;;;;;14.77;42.80;101817.06;5301747;28;20020;-74
2022/04/26 14:52:07;;;;;;;6.55;3.75;;;;;;;14.76;43.94;101815.41;5288401;28;20025;-74
2022/04/26 14:54:40;;;;;;;9.13;4.15;;;;;;;14.78;43.97;101819.56;5304508;28;20028;-74
2022/04/26 14:57:11;;;;;;;8.80;4.32;;;;;;;14.75;43.49;101816.53;5309931;28;20085;-74
2022/04/26 14:59:46;;;;;;;6.50;4.53;;;;;;;14.81;44.26;101822.91;5285260;28;20488;-74
2022/04/26 15:02:19;;;;;;;5.90;4.55;;;;;;;14.68;44.44;101819.69;5296611;28;20073;-74
2022/04/26 15:04:51;;;;;;;21.55;19.05;;;;;;;14.69;43.81;101818.53;5304531;28;20426;-72
2022/04/26 15:07:22;;;;;;;5.82;4.22;;;;;;;14.70;43.39;101817.44;5307847;28;20066;-75
2022/04/26 15:09:54;;;;;;;30.67;27.58;;;;;;;14.78;45.45;101819.56;5286209;28;20461;-75
2022/04/26 15:18:09;;;;;;;9.52;4.53;;;;;;;15.02;42.58;101815.16;5278501;28;20048;-81
2022/04/26 15:20:41;;;;;;;4.57;4.13;;;;;;;14.79;42.22;101817.63;5306067;28;20027;-76
2022/04/26 15:23:12;;;;;;;12.55;8.10;;;;;;;14.99;42.44;101806.22;5307717;28;20176;-80
2022/04/26 15:25:55;;;;;;;29.85;18.13;;;;;;;15.13;42.69;101813.88;5302659;28;20036;-78
2022/04/26 15:28:30;;;;;;;20.02;15.10;;;;;;;15.22;42.27;101814.91;5309865;28;20459;-79
2022/04/26 15:31:05;;;;;;;4.70;3.63;;;;;;;15.19;41.88;101815.50;5295235;28;20376;-81
2022/04/26 15:33:38;;;;;;;3.88;2.90;;;;;;;15.13;40.88;101817.50;5294819;28;20390;-80
2022/04/26 15:36:10;;;;;;;4.60;3.63;;;;;;;15.19;40.14;101813.53;5295670;28;20054;-79
2022/04/26 15:38:42;;;;;;;10.55;9.45;;;;;;;15.20;39.91;101812.41;5289735;28;20414;-77
2022/04/26 15:41:17;;;;;;;5.50;3.58;;;;;;;15.11;39.33;101816.16;5275009;28;20028;-75
2022/04/26 15:43:51;;;;;;;6.90;5.38;;;;;;;15.35;39.85;101818.94;5276752;28;20028;-76
2022/04/26 15:46:23;;;;;;;5.82;3.05;;;;;;;15.10;38.68;101828.47;5293150;28;20061;-74
2022/04/26 15:48:55;;;;;;;3.47;2.83;;;;;;;15.01;39.02;101828.28;5306187;28;20145;-79
2022/04/26 15:51:27;;;;;;;3.58;3.17;;;;;;;15.15;37.69;101825.59;5307012;28;20193;-84
2022/04/26 15:54:00;;;;;;;4.57;2.97;;;;;;;15.01;37.95;101819.91;5306081;28;20094;-82
2022/04/26 15:56:32;;;;;;;3.78;2.65;;;;;;;15.04;37.96;101819.31;5305669;28;20032;-81
2022/04/26 15:59:03;;;;;;;4.82;2.78;;;;;;;14.97;37.47;101822.44;5293537;28;20025;-79
2022/04/26 16:01:36;;;;;;;3.78;2.53;;;;;;;15.06;37.99;101825.44;5294503;28;20051;-79
2022/04/26 16:04:09;;;;;;;4.78;3.40;;;;;;;15.04;37.43;101833.28;5283903;28;20036;-79
2022/04/26 16:06:41;;;;;;;4.38;2.80;;;;;;;15.10;37.71;101826.50;5285471;28;20043;-78
2022/04/26 16:20:35;;;;;;;3.25;2.95;;;;;;;15.11;37.45;101833.75;5272179;28;20532;-74
2022/04/26 16:23:06;;;;;;;4.65;3.00;;;;;;;15.13;37.54;101836.25;5265226;28;20104;-71
2022/04/26 16:25:38;;;;;;;6.13;3.67;;;;;;;14.96;37.58;101842.31;5266613;28;20040;-71
2022/04/26 16:28:09;;;;;;;3.95;2.83;;;;;;;15.08;36.55;101834.34;5271052;28;20024;-71
2022/04/26 16:30:41;;;;;;;5.75;3.55;;;;;;;15.19;37.51;101830.31;5286038;28;20543;-72
2022/04/26 16:33:13;;;;;;;4.93;2.80;;;;;;;15.19;37.13;101841.50;5286514;28;20031;-71
2022/04/26 16:35:45;;;;;;;4.22;2.50;;;;;;;15.06;37.34;101841.34;5286321;28;20017;-72
2022/04/26 16:38:17;;;;;;;4.97;2.90;;;;;;;15.01;37.04;101836.66;5286838;28;20029;-71
2022/04/26 16:40:49;;;;;;;5.22;2.90;;;;;;;15.08;37.51;101845.50;5286522;28;20491;-72
2022/04/26 16:43:20;;;;;;;4.35;3.00;;;;;;;14.93;37.21;101854.03;5285113;28;20029;-72
2022/04/26 16:45:52;;;;;;;6.28;2.70;;;;;;;14.99;37.22;101847.31;5286230;28;20368;-72
2022/04/26 16:48:24;;;;;;;5.03;3.13;;;;;;;15.00;37.93;101851.75;5285629;28;20494;-71
2022/04/26 16:50:55;;;;;;;4.97;2.70;;;;;;;15.18;37.57;101853.78;5287825;28;20471;-80
2022/04/26 16:53:26;;;;;;;4.93;2.90;;;;;;;14.93;36.87;101854.03;5289778;28;20051;-79
2022/04/26 16:55:58;;;;;;;3.05;2.60;;;;;;;15.25;37.48;101849.81;5289041;28;20081;-80
2022/04/26 16:58:30;;;;;;;4.35;2.60;;;;;;;15.14;37.14;101858.31;5282467;28;20076;-80
2022/04/26 17:01:01;;;;;;;23.00;20.55;;;;;;;15.19;36.87;101858.25;5267723;28;20360;-79
2022/04/26 17:03:33;;;;;;;4.55;2.78;;;;;;;15.23;37.00;101864.91;5267660;28;20164;-80
2022/04/26 17:06:07;;;;;;;8.05;2.70;;;;;;;15.22;37.11;101854.84;5267024;28;20082;-80
2022/04/26 17:08:38;;;;;;;2.88;2.67;;;;;;;15.24;37.01;101860.16;5277573;28;20119;-80
2022/04/26 17:13:59;;;;;;;3.78;3.17;;;;;;;15.01;37.24;101864.59;5286971;28;20424;-80
2022/04/26 17:16:30;;;;;;;3.83;3.13;;;;;;;15.08;38.01;101861.44;5273632;28;20045;-80
2022/04/26 17:19:03;;;;;;;3.40;2.70;;;;;;;14.95;38.05;101868.56;5278740;28;20032;-80
2022/04/26 17:21:34;;;;;;;3.88;3.00;;;;;;;14.85;38.40;101874.25;5288591;28;20025;-78
2022/04/26 17:25:13;;;;;;;5.72;3.10;;;;;;;14.81;37.73;101878.75;5287814;28;20035;-79
2022/04/26 17:26:57;;;;;;;4.55;2.53;;;;;;;14.66;38.28;101876.94;5288135;28;20033;-80
2022/04/26 17:29:28;;;;;;;4.70;3.20;;;;;;;14.82;38.84;101880.41;5288078;28;20027;-80
